Terminal Aerodrome Forecast
Issued by NWS Wichita, KS

Home | Current Version | Previous Version | Text Only | Print | Product List | Glossary Off
Versions: 1 2 3 4 5 6 7 8 9 10 11 12 13 14 15 16 17

197
FTUS43 KICT 270522
TAFICT
TAF
KICT 270522Z 2706/2806 VRB04KT P6SM SKC
     FM271300 15007KT P6SM SCT130 BKN250
     FM271900 14012KT P6SM OVC100
     FM280000 10013KT P6SM VCSH OVC035=

USA.gov is the U.S. government's official web portal to all federal, state and local government web resources and services.